San Jose Del Cabo, BCS, Mexico
Current Conditions -  °F | °C
As of 5:42 PM on Tuesday 21 Oct 2014 (Local Time) from MMSD Reporting Station
Few Clouds Few Clouds  
Wind Chill: 81°   Ceiling: Unl
Heat Index: 82°   Visibility: 15mi
Dew Point: 64°   Wind: 7mph
Humidity: 58%   Direction: 170°S
Pressure: 29.77"   Gusts: NA
Location:  23.07°N, 109.68°W
Report Text: MMSD 212342Z 17006KT 15SM FEW040TCU FEW080 27/18 A2977 RMK 8/230
Loading
Personal Weather Stations






























Interactive Weather Map New forecast layout! Learn more

10-Day Weather Forecast

Advertisements
Track Severe Weather on mobile